Time;durP1;ratioP1;P1;durP2;ratioP2;P2;SDS_P1;SDS_P2;PMS_P1;PMS_P2;Temp;Humidity;BMP_temperature;BMP_pressure;BME280_temperature;BME280_humidity;BME280_pressure;Samples;Min_cycle;Max_cycle;Signal;HPM_P1;HPM_P2
2021/09/22 00:02:11;;;;;;;17.80;16.13;;;8.70;99.90;;;;;;4844649;29;20644;-93
2021/09/22 00:04:39;;;;;;;18.00;16.70;;;8.70;99.90;;;;;;4843063;29;20658;-93
2021/09/22 00:07:06;;;;;;;16.60;15.30;;;8.70;99.90;;;;;;4843737;29;20695;-93
2021/09/22 00:09:33;;;;;;;17.97;16.67;;;8.70;99.90;;;;;;4843030;29;20704;-94
2021/09/22 00:12:01;;;;;;;18.13;16.73;;;8.70;99.90;;;;;;4841379;29;20750;-94
2021/09/22 00:14:28;;;;;;;18.40;16.80;;;8.70;99.90;;;;;;4843804;29;20668;-93
2021/09/22 00:16:56;;;;;;;18.10;16.70;;;8.70;99.90;;;;;;4840272;29;20636;-93
2021/09/22 00:19:24;;;;;;;16.40;15.30;;;8.60;99.90;;;;;;4843706;29;20696;-93
2021/09/22 00:21:51;;;;;;;19.03;17.73;;;8.50;99.90;;;;;;4836657;29;20667;-94
2021/09/22 00:24:18;;;;;;;18.63;17.13;;;8.60;99.90;;;;;;4836623;29;20643;-93
2021/09/22 00:26:45;;;;;;;18.03;16.73;;;8.60;99.90;;;;;;4848939;29;20644;-94
2021/09/22 00:29:12;;;;;;;18.57;17.20;;;8.60;99.90;;;;;;4861777;29;20774;-93
2021/09/22 00:31:40;;;;;;;19.37;17.87;;;8.50;99.90;;;;;;4867587;29;20656;-92
2021/09/22 00:34:09;;;;;;;18.60;17.10;;;8.50;99.90;;;;;;4865655;29;20705;-92
2021/09/22 00:36:37;;;;;;;19.80;18.20;;;8.50;99.90;;;;;;4861248;29;20672;-93
2021/09/22 00:39:06;;;;;;;19.93;18.33;;;8.50;99.90;;;;;;4864750;29;20647;-93
2021/09/22 00:41:33;;;;;;;19.40;17.90;;;8.60;99.90;;;;;;4852555;29;20663;-92
2021/09/22 00:44:02;;;;;;;20.23;18.63;;;8.40;99.90;;;;;;4838429;29;20648;-92
2021/09/22 00:46:29;;;;;;;19.37;17.70;;;8.40;99.90;;;;;;4838985;29;20770;-92
2021/09/22 00:48:56;;;;;;;22.10;20.10;;;8.40;99.90;;;;;;4844581;29;20640;-93
2021/09/22 00:51:25;;;;;;;20.07;18.57;;;8.40;99.90;;;;;;4840579;29;20624;-93
2021/09/22 00:53:52;;;;;;;18.90;17.40;;;8.40;99.90;;;;;;4840427;29;20686;-94
2021/09/22 00:56:21;;;;;;;19.57;18.10;;;8.40;99.90;;;;;;4838535;29;20672;-93
2021/09/22 00:58:48;;;;;;;20.03;18.60;;;8.40;99.90;;;;;;4845736;29;20635;-94
2021/09/22 01:01:15;;;;;;;20.87;19.27;;;8.40;99.90;;;;;;4844609;29;20750;-94
2021/09/22 01:03:42;;;;;;;21.20;19.40;;;8.40;99.90;;;;;;4847255;29;20959;-94
2021/09/22 01:06:10;;;;;;;18.77;17.20;;;8.40;99.90;;;;;;4843145;29;20765;-94
2021/09/22 01:08:39;;;;;;;21.80;20.10;;;8.30;99.90;;;;;;4842415;29;20640;-95
2021/09/22 01:11:07;;;;;;;20.70;19.10;;;8.40;99.90;;;;;;4840164;29;20656;-95
2021/09/22 01:13:34;;;;;;;21.20;19.40;;;8.40;99.90;;;;;;4842220;29;20663;-94
2021/09/22 01:16:01;;;;;;;21.93;20.03;;;8.40;99.90;;;;;;4837796;29;20675;-94
2021/09/22 01:18:28;;;;;;;21.70;19.90;;;8.30;99.90;;;;;;4844909;29;20647;-91
2021/09/22 01:20:57;;;;;;;20.60;19.10;;;8.30;99.90;;;;;;4837821;29;21148;-92
2021/09/22 01:23:26;;;;;;;20.47;18.57;;;8.30;99.90;;;;;;4844728;29;20731;-92
2021/09/22 01:25:54;;;;;;;22.23;20.53;;;8.40;99.90;;;;;;4854499;29;20652;-92
2021/09/22 01:28:23;;;;;;;21.57;19.80;;;8.30;99.90;;;;;;4864476;29;20688;-92
2021/09/22 01:30:51;;;;;;;20.80;19.10;;;8.30;99.90;;;;;;4871798;29;20654;-92
2021/09/22 01:33:22;;;;;;;21.83;20.13;;;8.20;99.90;;;;;;4853404;29;20655;-93
2021/09/22 01:35:51;;;;;;;22.27;20.57;;;8.30;99.90;;;;;;4845562;29;20668;-93
2021/09/22 01:38:20;;;;;;;22.57;20.73;;;8.30;99.90;;;;;;4853820;29;20612;-92
2021/09/22 01:40:58;;;;;;;19.90;18.20;;;8.30;99.90;;;;;;4860400;29;21044;-93
2021/09/22 01:43:27;;;;;;;21.07;19.50;;;8.20;99.90;;;;;;4851559;29;20616;-93
2021/09/22 01:45:55;;;;;;;21.10;19.50;;;8.10;99.90;;;;;;4852101;29;20674;-92
2021/09/22 01:48:22;;;;;;;19.67;18.20;;;8.10;99.90;;;;;;4845035;29;21274;-93
2021/09/22 01:50:49;;;;;;;21.57;19.80;;;8.00;99.90;;;;;;4853310;29;20746;-93
2021/09/22 01:53:17;;;;;;;21.37;19.67;;;8.00;99.90;;;;;;4844081;29;20702;-93
2021/09/22 01:55:45;;;;;;;20.77;19.17;;;8.00;99.90;;;;;;4842534;29;21020;-93
2021/09/22 01:58:15;;;;;;;20.93;19.43;;;8.00;99.90;;;;;;4843841;29;20645;-93
2021/09/22 02:00:44;;;;;;;22.20;20.60;;;8.00;99.90;;;;;;4844318;29;20646;-93
2021/09/22 02:03:11;;;;;;;22.73;20.40;;;8.00;99.90;;;;;;4841746;29;21154;-93
2021/09/22 02:05:38;;;;;;;22.73;21.00;;;8.10;99.90;;;;;;4846070;29;20674;-92
2021/09/22 02:08:06;;;;;;;21.60;20.03;;;8.10;99.90;;;;;;4848050;29;20718;-92
2021/09/22 02:10:33;;;;;;;19.70;18.20;;;8.10;99.90;;;;;;4849448;29;21165;-93
2021/09/22 02:13:00;;;;;;;21.10;19.50;;;8.00;99.90;;;;;;4844906;29;20648;-92
2021/09/22 02:15:29;;;;;;;20.73;19.23;;;7.90;99.90;;;;;;4852071;29;20685;-92
2021/09/22 02:17:56;;;;;;;21.90;20.20;;;8.00;99.90;;;;;;4850879;29;20814;-92
2021/09/22 02:20:23;;;;;;;19.63;18.10;;;8.00;99.90;;;;;;4844004;29;20647;-93
2021/09/22 02:25:33;;;;;;;19.00;17.70;;;7.90;99.90;;;;;;4843481;29;20759;-94
2021/09/22 02:28:00;;;;;;;20.63;19.03;;;7.90;99.90;;;;;;4853748;29;21258;-95
2021/09/22 02:30:31;;;;;;;21.27;19.50;;;8.00;99.90;;;;;;4848975;29;20724;-96
2021/09/22 02:32:59;;;;;;;20.57;18.97;;;8.00;99.90;;;;;;4856892;29;20638;-95
2021/09/22 02:35:26;;;;;;;20.43;18.93;;;7.90;99.90;;;;;;4851764;29;20744;-95
2021/09/22 02:37:53;;;;;;;20.33;18.63;;;7.90;99.90;;;;;;4854717;29;20679;-95
2021/09/22 02:40:20;;;;;;;20.43;18.83;;;7.90;99.90;;;;;;4850258;29;21233;-95
2021/09/22 02:42:48;;;;;;;20.17;18.67;;;7.90;99.90;;;;;;4846972;29;20743;-94
2021/09/22 02:45:16;;;;;;;19.07;17.63;;;7.90;99.90;;;;;;4845824;29;21022;-93
2021/09/22 02:47:45;;;;;;;19.77;18.17;;;7.80;99.90;;;;;;4860478;29;20652;-92
2021/09/22 02:50:17;;;;;;;19.20;17.80;;;7.80;99.90;;;;;;4861810;29;20654;-94
2021/09/22 02:52:47;;;;;;;19.07;17.67;;;7.80;99.90;;;;;;4874317;29;20636;-94
2021/09/22 02:55:14;;;;;;;19.77;18.20;;;7.70;99.90;;;;;;4865067;29;20869;-94
2021/09/22 02:57:44;;;;;;;21.80;20.10;;;7.80;99.90;;;;;;4869553;29;20616;-94
2021/09/22 03:00:13;;;;;;;20.53;18.73;;;7.70;99.90;;;;;;4873726;29;20628;-94
2021/09/22 03:02:41;;;;;;;20.93;19.43;;;7.70;99.90;;;;;;4873467;29;20620;-94
2021/09/22 03:05:10;;;;;;;20.37;18.87;;;7.70;99.90;;;;;;4855592;29;20740;-93
2021/09/22 03:07:38;;;;;;;21.33;19.67;;;7.70;99.90;;;;;;4848666;29;20642;-93
2021/09/22 03:10:06;;;;;;;20.83;19.30;;;7.70;99.90;;;;;;4846692;29;20657;-93
2021/09/22 03:12:34;;;;;;;21.10;19.50;;;7.70;99.90;;;;;;4843127;29;20647;-94
2021/09/22 03:15:03;;;;;;;21.50;19.90;;;7.80;99.90;;;;;;4848021;29;20678;-93
2021/09/22 03:17:31;;;;;;;21.37;19.87;;;7.80;99.90;;;;;;4849362;29;20648;-93
2021/09/22 03:19:58;;;;;;;19.90;18.13;;;7.70;99.90;;;;;;4851097;29;21210;-93
2021/09/22 03:22:26;;;;;;;20.47;18.77;;;7.70;99.90;;;;;;4851297;29;20645;-91
2021/09/22 03:24:53;;;;;;;20.60;19.00;;;7.60;99.90;;;;;;4852135;29;20667;-92
2021/09/22 03:27:20;;;;;;;21.00;19.50;;;7.60;99.90;;;;;;4844219;29;20677;-92
2021/09/22 03:29:47;;;;;;;22.60;21.00;;;7.60;99.90;;;;;;4850869;29;21284;-92
2021/09/22 03:32:14;;;;;;;19.43;18.03;;;7.60;99.90;;;;;;4840850;29;20745;-92
2021/09/22 03:34:41;;;;;;;20.37;18.67;;;7.60;99.90;;;;;;4844472;29;21132;-93
2021/09/22 03:37:08;;;;;;;22.40;20.57;;;7.60;99.90;;;;;;4846655;29;20652;-93
2021/09/22 03:39:37;;;;;;;20.10;18.70;;;7.60;99.90;;;;;;4848594;29;20702;-93
2021/09/22 03:42:05;;;;;;;20.77;19.20;;;7.50;99.90;;;;;;4848836;29;20662;-94
2021/09/22 03:44:32;;;;;;;20.93;19.33;;;7.50;99.90;;;;;;4842727;29;20644;-94
2021/09/22 03:46:59;;;;;;;21.80;20.10;;;7.60;99.90;;;;;;4845426;29;20641;-94
2021/09/22 03:49:27;;;;;;;21.53;19.80;;;7.60;99.90;;;;;;4844071;29;20660;-95
2021/09/22 03:51:54;;;;;;;20.30;18.70;;;7.60;99.90;;;;;;4846328;29;21186;-94
2021/09/22 03:54:22;;;;;;;20.63;18.87;;;7.50;99.90;;;;;;4856785;29;20643;-94
2021/09/22 03:56:52;;;;;;;21.40;19.80;;;7.40;99.90;;;;;;4851241;29;20754;-94
2021/09/22 03:59:19;;;;;;;20.00;18.50;;;7.40;99.90;;;;;;4844576;29;20776;-93
2021/09/22 04:01:46;;;;;;;19.60;18.10;;;7.40;99.90;;;;;;4847815;29;20642;-93
2021/09/22 04:04:13;;;;;;;18.00;16.67;;;7.40;99.90;;;;;;4848774;29;21274;-94
2021/09/22 04:06:42;;;;;;;19.20;17.90;;;7.30;99.90;;;;;;4845924;29;20698;-93
2021/09/22 04:09:15;;;;;;;20.47;18.70;;;7.40;99.90;;;;;;4851006;29;20671;-92
2021/09/22 04:11:42;;;;;;;21.87;19.97;;;7.30;99.90;;;;;;4854402;29;20712;-92
2021/09/22 04:14:11;;;;;;;20.70;19.20;;;7.30;99.90;;;;;;4836647;29;21020;-93
2021/09/22 04:16:38;;;;;;;20.87;19.20;;;7.30;99.90;;;;;;4841198;29;20654;-93
2021/09/22 04:19:05;;;;;;;21.73;19.83;;;7.40;99.90;;;;;;4856158;29;21122;-94
2021/09/22 04:21:37;;;;;;;20.63;19.13;;;7.40;99.90;;;;;;4842943;29;20719;-94
2021/09/22 04:24:04;;;;;;;21.07;19.57;;;7.30;99.90;;;;;;4849154;29;20742;-93
2021/09/22 04:26:31;;;;;;;19.77;18.20;;;7.30;99.90;;;;;;4856450;29;20665;-93
2021/09/22 04:28:59;;;;;;;20.77;19.20;;;7.30;99.90;;;;;;4860617;29;20676;-92
2021/09/22 04:31:27;;;;;;;18.77;17.33;;;7.30;99.90;;;;;;4874775;29;20679;-94
2021/09/22 04:33:54;;;;;;;19.73;18.33;;;7.20;99.90;;;;;;4865465;29;20629;-92
2021/09/22 04:36:22;;;;;;;18.90;17.37;;;7.20;99.90;;;;;;4868442;29;20640;-93
2021/09/22 04:38:49;;;;;;;18.50;17.20;;;7.20;99.90;;;;;;4873474;29;20679;-93
2021/09/22 04:41:16;;;;;;;18.83;17.33;;;7.20;99.90;;;;;;4868501;29;20661;-93
2021/09/22 04:43:43;;;;;;;18.63;17.23;;;7.20;99.90;;;;;;4850136;29;20661;-91
2021/09/22 04:46:09;;;;;;;18.57;17.27;;;7.20;99.90;;;;;;4856347;29;20717;-91
2021/09/22 04:48:40;;;;;;;18.70;17.30;;;7.20;99.90;;;;;;4847701;29;20647;-91
2021/09/22 04:51:07;;;;;;;19.60;18.20;;;7.20;99.90;;;;;;4833318;29;20647;-91
2021/09/22 04:53:34;;;;;;;20.57;18.97;;;7.20;99.90;;;;;;4841300;29;20673;-91
2021/09/22 04:56:02;;;;;;;18.07;16.77;;;7.20;99.90;;;;;;4850208;29;20673;-91
2021/09/22 04:58:28;;;;;;;19.40;17.80;;;7.20;99.90;;;;;;4857281;29;20803;-91
2021/09/22 05:01:01;;;;;;;19.20;17.77;;;7.20;99.90;;;;;;4853301;29;20639;-92
2021/09/22 05:03:28;;;;;;;18.63;17.13;;;7.10;99.90;;;;;;4851097;29;20756;-92
2021/09/22 05:05:58;;;;;;;17.67;16.30;;;7.10;99.90;;;;;;4842143;29;20685;-92
2021/09/22 05:08:25;;;;;;;19.63;18.13;;;7.10;99.90;;;;;;4849727;29;20651;-92
2021/09/22 05:10:53;;;;;;;18.93;17.43;;;7.00;99.90;;;;;;4841924;29;20660;-92
2021/09/22 05:13:22;;;;;;;17.03;15.83;;;7.00;99.90;;;;;;4840872;29;20650;-92
2021/09/22 05:15:49;;;;;;;18.40;17.00;;;7.00;99.90;;;;;;4854434;29;20678;-92
2021/09/22 05:18:16;;;;;;;18.93;17.43;;;7.00;99.90;;;;;;4852344;29;20647;-91
2021/09/22 05:20:44;;;;;;;18.90;17.27;;;7.00;99.90;;;;;;4855456;29;20796;-92
2021/09/22 05:23:14;;;;;;;18.80;17.40;;;7.00;99.90;;;;;;4858562;29;20767;-92
2021/09/22 05:25:45;;;;;;;20.50;19.00;;;7.10;99.90;;;;;;4866050;29;20634;-92
2021/09/22 05:28:12;;;;;;;20.27;18.60;;;7.10;99.90;;;;;;4849565;29;20707;-92
2021/09/22 05:30:39;;;;;;;22.93;21.13;;;7.10;99.90;;;;;;4856129;29;20690;-90
2021/09/22 05:33:09;;;;;;;19.47;17.97;;;7.30;99.90;;;;;;4855348;29;20676;-92
2021/09/22 05:38:19;;;;;;;18.27;16.93;;;7.20;99.90;;;;;;4857324;29;20634;-92
2021/09/22 05:40:47;;;;;;;18.87;17.47;;;7.30;99.90;;;;;;4851169;29;21178;-93
2021/09/22 05:43:16;;;;;;;19.10;17.67;;;7.30;99.90;;;;;;4854393;29;20688;-92
2021/09/22 05:45:43;;;;;;;19.90;18.20;;;7.30;99.90;;;;;;4858285;29;21001;-93
2021/09/22 05:48:13;;;;;;;19.03;17.50;;;7.40;99.90;;;;;;4842290;29;20650;-94
2021/09/22 05:50:44;;;;;;;20.43;18.73;;;7.50;99.90;;;;;;4846077;29;21092;-94
2021/09/22 05:53:15;;;;;;;19.23;17.63;;;7.50;99.90;;;;;;4850396;29;20779;-94
2021/09/22 05:58:31;;;;;;;21.23;19.50;;;7.50;99.90;;;;;;4858424;29;20811;-93
2021/09/22 06:06:25;;;;;;;20.00;18.50;;;7.60;99.90;;;;;;4850848;29;20672;-95
2021/09/22 06:14:46;;;;;;;20.77;19.20;;;7.90;99.90;;;;;;4854641;29;20667;-93
2021/09/22 06:17:21;;;;;;;20.93;19.13;;;8.00;99.90;;;;;;4859775;29;20659;-93
2021/09/22 06:22:38;;;;;;;22.10;19.90;;;8.10;99.90;;;;;;4841455;29;21150;-94
2021/09/22 06:27:48;;;;;;;22.13;20.10;;;8.20;99.90;;;;;;4856219;29;20634;-94
2021/09/22 06:36:06;;;;;;;21.30;19.70;;;8.50;99.90;;;;;;4867957;29;20673;-94
2021/09/22 06:47:19;;;;;;;22.70;20.97;;;8.90;99.90;;;;;;4859733;29;20652;-94
2021/09/22 06:53:28;;;;;;;23.07;21.37;;;9.00;99.90;;;;;;4855743;29;20651;-92
2021/09/22 06:55:55;;;;;;;22.20;20.30;;;9.20;99.90;;;;;;4857711;29;20814;-91
2021/09/22 06:58:23;;;;;;;22.13;20.43;;;9.30;99.90;;;;;;4853450;29;20666;-90
2021/09/22 07:00:50;;;;;;;23.00;21.13;;;9.40;99.90;;;;;;4850901;29;20655;-90
2021/09/22 07:03:17;;;;;;;23.10;21.03;;;9.50;99.90;;;;;;4845724;29;21015;-90
2021/09/22 07:05:44;;;;;;;22.37;20.57;;;9.50;99.90;;;;;;4845553;29;20637;-90
2021/09/22 07:08:12;;;;;;;21.40;19.67;;;9.70;99.90;;;;;;4844137;29;21026;-90
2021/09/22 07:10:41;;;;;;;22.10;20.17;;;9.70;99.90;;;;;;4850980;29;20651;-91
2021/09/22 07:13:09;;;;;;;21.07;19.33;;;9.90;99.90;;;;;;4846505;29;20680;-90
2021/09/22 07:15:36;;;;;;;20.53;18.73;;;10.00;99.90;;;;;;4842411;29;20778;-90
2021/09/22 07:18:07;;;;;;;22.50;20.60;;;9.90;99.90;;;;;;4848456;29;20950;-92
2021/09/22 07:20:35;;;;;;;21.50;19.50;;;10.10;99.90;;;;;;4849263;29;20726;-91
2021/09/22 07:23:02;;;;;;;21.53;19.73;;;10.20;99.90;;;;;;4852823;29;20685;-91
2021/09/22 07:25:29;;;;;;;19.50;17.80;;;10.50;99.90;;;;;;4849936;29;20664;-89
2021/09/22 07:27:58;;;;;;;20.80;19.20;;;10.50;99.90;;;;;;4838781;29;21181;-89
2021/09/22 07:30:25;;;;;;;20.43;18.83;;;10.60;99.90;;;;;;4847597;29;21167;-89
2021/09/22 07:32:59;;;;;;;20.13;18.53;;;10.90;99.90;;;;;;4843561;29;21248;-89
2021/09/22 07:35:26;;;;;;;19.47;17.60;;;11.00;99.90;;;;;;4874571;29;20651;-88
2021/09/22 07:37:54;;;;;;;19.00;17.40;;;11.10;99.90;;;;;;4858350;29;20643;-89
2021/09/22 07:40:21;;;;;;;20.97;18.03;;;11.30;99.90;;;;;;4854709;29;20627;-90
2021/09/22 07:42:47;;;;;;;18.70;17.20;;;11.40;99.90;;;;;;4847737;29;20675;-89
2021/09/22 07:45:17;;;;;;;20.57;18.77;;;11.30;99.90;;;;;;4840526;29;20631;-90
2021/09/22 07:47:44;;;;;;;19.77;18.03;;;11.30;99.90;;;;;;4848558;29;20648;-89
2021/09/22 07:50:12;;;;;;;18.33;16.83;;;11.20;99.90;;;;;;4856176;29;20934;-90
2021/09/22 07:52:40;;;;;;;19.67;17.67;;;11.30;99.90;;;;;;4854000;29;20667;-89
2021/09/22 07:55:11;;;;;;;18.73;17.33;;;11.50;99.90;;;;;;4850519;29;21310;-90
2021/09/22 07:57:38;;;;;;;20.80;19.20;;;11.70;99.90;;;;;;4846036;29;20603;-89
2021/09/22 08:00:09;;;;;;;20.40;18.60;;;11.80;99.90;;;;;;4854796;29;20623;-89
2021/09/22 08:02:38;;;;;;;18.87;17.13;;;11.90;99.90;;;;;;4849436;29;21246;-90
2021/09/22 08:05:06;;;;;;;19.63;16.50;;;12.20;99.90;;;;;;4854584;29;20642;-89
2021/09/22 08:07:33;;;;;;;19.23;17.57;;;12.30;99.90;;;;;;4847329;29;20673;-90
2021/09/22 08:10:00;;;;;;;20.43;17.87;;;12.40;99.90;;;;;;4850913;29;20640;-90
2021/09/22 08:12:27;;;;;;;18.50;16.70;;;12.50;99.90;;;;;;4849340;29;20667;-88
2021/09/22 08:14:54;;;;;;;18.60;16.90;;;12.50;99.90;;;;;;4852016;29;20715;-89
2021/09/22 08:17:21;;;;;;;18.90;17.30;;;12.90;99.90;;;;;;4854121;29;20642;-89
2021/09/22 08:19:50;;;;;;;17.43;15.83;;;13.10;99.90;;;;;;4850641;29;20635;-90
2021/09/22 08:22:18;;;;;;;17.90;16.40;;;13.10;99.90;;;;;;4847114;29;21058;-90
2021/09/22 08:24:45;;;;;;;19.33;17.63;;;13.20;99.90;;;;;;4848228;29;20631;-91
2021/09/22 08:27:13;;;;;;;18.43;17.03;;;13.00;99.90;;;;;;4848899;29;20936;-91
2021/09/22 08:29:41;;;;;;;19.37;17.57;;;13.00;99.90;;;;;;4862155;29;20640;-90
2021/09/22 08:32:08;;;;;;;18.47;16.67;;;13.20;99.90;;;;;;4866168;29;20675;-90
2021/09/22 08:34:35;;;;;;;18.33;16.50;;;13.30;99.90;;;;;;4870706;29;20645;-91
2021/09/22 08:37:05;;;;;;;17.80;16.10;;;13.60;99.90;;;;;;4864357;29;20671;-90
2021/09/22 08:39:33;;;;;;;17.47;15.97;;;13.70;99.90;;;;;;4864716;29;20663;-89
2021/09/22 08:42:02;;;;;;;19.00;17.40;;;13.80;99.90;;;;;;4858679;29;20672;-89
2021/09/22 08:44:43;;;;;;;18.60;17.00;;;13.80;99.90;;;;;;4845454;29;20659;-89
2021/09/22 08:47:13;;;;;;;20.33;18.63;;;14.00;99.90;;;;;;4845560;29;21076;-89
2021/09/22 08:49:57;;;;;;;19.37;17.67;;;14.30;99.90;;;;;;4850438;29;21174;-89
2021/09/22 08:52:26;;;;;;;19.30;17.70;;;14.20;99.90;;;;;;4840232;29;20773;-89
2021/09/22 08:54:57;;;;;;;17.50;16.10;;;14.40;99.90;;;;;;4843906;29;20723;-90
2021/09/22 08:57:24;;;;;;;16.97;15.47;;;14.30;99.90;;;;;;4851478;29;20644;-90
2021/09/22 08:59:51;;;;;;;17.37;15.87;;;14.50;99.90;;;;;;4846104;29;21117;-89
2021/09/22 09:02:20;;;;;;;16.47;15.03;;;14.60;99.90;;;;;;4846244;29;20667;-89
2021/09/22 09:05:05;;;;;;;16.20;14.70;;;14.80;99.90;;;;;;4850101;29;20630;-90
2021/09/22 09:07:35;;;;;;;15.70;14.40;;;14.80;99.90;;;;;;4844034;29;20687;-90
2021/09/22 09:10:07;;;;;;;14.97;13.67;;;14.90;99.90;;;;;;4852071;29;20634;-92
2021/09/22 09:12:34;;;;;;;15.00;13.80;;;15.10;99.90;;;;;;4842292;29;21051;-90
2021/09/22 09:15:03;;;;;;;14.63;13.30;;;15.50;99.90;;;;;;4842856;29;20659;-90
2021/09/22 09:17:40;;;;;;;16.03;14.40;;;15.70;99.90;;;;;;4847139;29;21040;-90
2021/09/22 09:20:15;;;;;;;14.90;13.50;;;15.90;99.90;;;;;;4843325;29;20643;-90
2021/09/22 09:22:55;;;;;;;15.13;13.73;;;15.80;99.90;;;;;;4847811;29;21254;-90
2021/09/22 09:25:25;;;;;;;14.77;13.57;;;16.10;99.90;;;;;;4849194;29;20622;-90
2021/09/22 09:27:52;;;;;;;15.20;13.90;;;16.10;99.90;;;;;;4844374;29;21059;-88
2021/09/22 09:30:21;;;;;;;13.83;12.73;;;16.20;99.90;;;;;;4849274;29;20683;-89
2021/09/22 09:32:49;;;;;;;16.33;13.20;;;16.40;99.90;;;;;;4847594;29;20666;-89
2021/09/22 09:35:17;;;;;;;14.67;13.17;;;16.30;99.90;;;;;;4851004;29;21202;-89
2021/09/22 09:37:48;;;;;;;13.97;12.50;;;16.70;99.90;;;;;;4850506;29;20646;-89
2021/09/22 09:40:26;;;;;;;12.37;10.50;;;17.10;99.90;;;;;;4850363;29;20649;-89
2021/09/22 09:42:55;;;;;;;10.70;9.60;;;17.50;99.90;;;;;;4842471;29;20753;-91
2021/09/22 09:45:23;;;;;;;11.43;10.23;;;17.70;99.90;;;;;;4841898;29;21026;-90
2021/09/22 09:48:02;;;;;;;12.97;11.67;;;17.80;99.90;;;;;;4840463;29;20646;-91
2021/09/22 09:50:29;;;;;;;10.77;9.67;;;18.40;99.90;;;;;;4845039;29;20647;-90
2021/09/22 09:53:00;;;;;;;10.47;9.43;;;17.90;99.90;;;;;;4850319;29;20655;-89
2021/09/22 09:55:28;;;;;;;8.83;7.93;;;18.00;99.90;;;;;;4848390;29;20696;-91
2021/09/22 09:57:56;;;;;;;9.77;8.50;;;18.30;99.90;;;;;;4844878;29;20619;-91
2021/09/22 10:00:43;;;;;;;10.60;7.90;;;18.30;99.90;;;;;;4852773;29;20726;-91
2021/09/22 10:03:14;;;;;;;8.93;7.80;;;18.40;99.90;;;;;;4852756;29;20671;-92
2021/09/22 10:05:42;;;;;;;8.53;7.73;;;18.60;99.90;;;;;;4847627;29;20746;-92
2021/09/22 10:08:12;;;;;;;7.20;6.57;;;18.50;99.90;;;;;;4856597;29;20637;-92
2021/09/22 10:10:50;;;;;;;7.03;6.40;;;19.20;99.90;;;;;;4849097;29;20652;-92
2021/09/22 10:13:18;;;;;;;8.13;7.50;;;19.30;99.20;;;;;;4846139;29;20655;-90
2021/09/22 10:15:46;;;;;;;7.67;6.97;;;19.00;99.90;;;;;;4846670;29;20679;-91
2021/09/22 10:18:20;;;;;;;7.40;6.40;;;19.20;99.90;;;;;;4851888;29;20662;-90
2021/09/22 10:20:50;;;;;;;7.17;6.50;;;19.70;99.90;;;;;;4856083;29;20631;-89
2021/09/22 10:23:21;;;;;;;6.40;5.80;;;19.50;99.90;;;;;;4861860;29;20731;-90
2021/09/22 10:25:51;;;;;;;7.30;6.70;;;19.60;97.20;;;;;;4871003;29;21171;-90
2021/09/22 10:28:36;;;;;;;6.63;6.03;;;19.80;98.10;;;;;;4851894;29;20992;-92
2021/09/22 10:31:14;;;;;;;7.47;6.90;;;20.00;96.80;;;;;;4856359;29;20881;-90
2021/09/22 10:33:45;;;;;;;7.60;6.30;;;20.30;98.40;;;;;;4854322;29;20751;-90
2021/09/22 10:36:16;;;;;;;4.90;4.50;;;20.40;96.10;;;;;;4851088;29;20739;-91
2021/09/22 10:38:48;;;;;;;6.53;5.93;;;20.40;95.00;;;;;;4857713;29;20646;-91
2021/09/22 10:41:30;;;;;;;5.23;4.73;;;20.60;94.80;;;;;;4850759;29;20641;-91
2021/09/22 10:43:59;;;;;;;5.47;4.37;;;20.40;95.30;;;;;;4849627;29;20630;-91
2021/09/22 10:46:29;;;;;;;4.80;4.50;;;20.30;94.30;;;;;;4848814;29;20612;-91
2021/09/22 10:49:15;;;;;;;5.30;4.80;;;20.20;93.90;;;;;;4842879;29;20635;-91
2021/09/22 10:51:51;;;;;;;4.30;4.00;;;20.60;92.80;;;;;;4849088;29;20663;-90
2021/09/22 10:54:22;;;;;;;3.90;3.60;;;20.90;92.00;;;;;;4845587;29;20622;-91
2021/09/22 10:56:52;;;;;;;4.17;3.87;;;21.10;91.20;;;;;;4853156;29;20663;-91
2021/09/22 10:59:40;;;;;;;3.47;3.17;;;21.30;90.40;;;;;;4861285;29;20637;-91
2021/09/22 11:02:08;;;;;;;2.27;2.17;;;21.50;91.50;;;;;;4862693;29;20663;-92
2021/09/22 11:04:57;;;;;;;5.03;2.10;;;21.40;90.40;;;;;;4871633;29;20629;-91
2021/09/22 11:07:24;;;;;;;3.97;2.40;;;21.70;90.20;;;;;;4847372;29;20608;-91
2021/09/22 11:09:52;;;;;;;1.80;1.70;;;21.80;90.40;;;;;;4843058;29;20635;-91
2021/09/22 11:12:20;;;;;;;2.20;2.03;;;21.70;83.00;;;;;;4844273;29;20665;-91
2021/09/22 11:14:53;;;;;;;2.20;2.10;;;21.70;86.80;;;;;;4842600;29;21250;-91
2021/09/22 11:17:23;;;;;;;2.17;1.97;;;21.70;86.10;;;;;;4842572;29;20965;-91
2021/09/22 11:19:53;;;;;;;2.03;1.93;;;21.80;84.90;;;;;;4842320;29;20711;-90
2021/09/22 11:22:22;;;;;;;3.57;2.30;;;21.70;87.00;;;;;;4847286;29;20660;-91
2021/09/22 11:24:52;;;;;;;2.70;2.50;;;21.90;84.70;;;;;;4855778;29;20647;-91
2021/09/22 11:27:22;;;;;;;6.70;5.80;;;21.60;86.50;;;;;;4840869;29;20700;-90
2021/09/22 11:29:51;;;;;;;2.70;2.17;;;21.90;88.30;;;;;;4846821;29;21085;-91
2021/09/22 11:32:35;;;;;;;3.20;2.30;;;21.90;85.90;;;;;;4846589;29;20652;-91
2021/09/22 11:35:05;;;;;;;3.30;2.93;;;22.00;84.00;;;;;;4848954;29;20632;-91
2021/09/22 11:37:35;;;;;;;2.17;1.97;;;21.90;85.60;;;;;;4853765;29;20678;-91
2021/09/22 11:40:17;;;;;;;2.40;2.20;;;22.00;89.30;;;;;;4852135;29;21198;-91
2021/09/22 11:43:00;;;;;;;2.03;1.90;;;22.10;85.00;;;;;;4845587;29;20670;-91
2021/09/22 11:45:29;;;;;;;3.70;2.20;;;22.40;84.90;;;;;;4840044;29;21315;-91
2021/09/22 11:47:56;;;;;;;2.43;2.23;;;22.90;86.10;;;;;;4842996;29;21046;-91
2021/09/22 11:50:29;;;;;;;2.43;2.23;;;22.80;84.80;;;;;;4851059;29;20639;-91
2021/09/22 11:52:57;;;;;;;2.90;2.70;;;23.10;83.70;;;;;;4837483;29;21080;-92
2021/09/22 11:55:25;;;;;;;2.83;2.63;;;22.80;79.70;;;;;;4846843;29;20726;-90
2021/09/22 11:57:53;;;;;;;2.30;2.10;;;23.00;81.30;;;;;;4851931;29;20860;-90
2021/09/22 12:00:24;;;;;;;2.20;2.10;;;23.60;79.80;;;;;;4837811;29;21197;-91
2021/09/22 12:02:53;;;;;;;2.83;2.60;;;22.90;79.90;;;;;;4844301;29;21276;-91
2021/09/22 12:05:22;;;;;;;3.60;3.30;;;22.70;84.20;;;;;;4839228;29;20804;-90
2021/09/22 12:07:54;;;;;;;5.80;4.43;;;22.40;85.00;;;;;;4840463;29;20630;-92
2021/09/22 12:10:23;;;;;;;4.93;3.53;;;22.60;87.50;;;;;;4848879;29;20635;-91
2021/09/22 12:12:49;;;;;;;3.20;3.00;;;22.80;87.20;;;;;;4845560;29;20675;-91
2021/09/22 12:15:18;;;;;;;3.40;3.10;;;23.30;86.50;;;;;;4845091;29;20642;-90
2021/09/22 12:17:45;;;;;;;3.10;2.90;;;23.20;82.50;;;;;;4847349;29;21258;-90
2021/09/22 12:20:15;;;;;;;3.97;3.20;;;23.50;84.00;;;;;;4843106;29;21254;-90
2021/09/22 12:22:44;;;;;;;3.53;3.23;;;23.70;83.70;;;;;;4859384;29;21286;-91
2021/09/22 12:25:15;;;;;;;3.70;3.43;;;23.90;80.40;;;;;;4857753;29;20632;-90
2021/09/22 12:27:48;;;;;;;3.07;2.80;;;24.40;79.90;;;;;;4858322;29;20616;-90
2021/09/22 12:30:18;;;;;;;3.17;2.97;;;24.30;79.20;;;;;;4862777;29;20622;-90
2021/09/22 12:32:53;;;;;;;2.93;2.70;;;24.30;80.40;;;;;;4853718;29;20754;-90
2021/09/22 12:35:21;;;;;;;3.50;3.20;;;24.00;81.10;;;;;;4849337;29;20651;-91
2021/09/22 12:37:53;;;;;;;3.40;3.10;;;24.10;79.10;;;;;;4856438;29;20678;-90
2021/09/22 12:40:27;;;;;;;3.37;2.73;;;23.30;80.90;;;;;;4853665;29;20627;-90
2021/09/22 12:42:55;;;;;;;3.90;3.60;;;23.80;84.10;;;;;;4862386;29;20719;-91
2021/09/22 12:45:25;;;;;;;4.30;2.87;;;24.40;82.40;;;;;;4859576;29;20647;-91
2021/09/22 12:47:54;;;;;;;3.33;3.13;;;24.80;78.20;;;;;;4858340;29;20641;-91
2021/09/22 12:50:23;;;;;;;3.03;2.83;;;24.80;78.00;;;;;;4866995;29;20627;-90
2021/09/22 12:52:51;;;;;;;3.83;3.53;;;24.90;77.50;;;;;;4865110;29;20665;-91
2021/09/22 12:55:28;;;;;;;3.53;2.83;;;24.90;76.00;;;;;;4862920;29;20635;-93
2021/09/22 12:58:10;;;;;;;3.97;3.37;;;24.10;78.20;;;;;;4848079;29;20631;-92
2021/09/22 13:00:56;;;;;;;2.97;2.77;;;24.10;80.50;;;;;;4854407;29;20624;-92
2021/09/22 13:03:28;;;;;;;4.73;2.90;;;23.80;80.50;;;;;;4863231;29;20652;-92
2021/09/22 13:06:05;;;;;;;2.70;2.50;;;23.80;79.30;;;;;;4871717;29;20614;-92
2021/09/22 13:08:43;;;;;;;3.10;2.90;;;24.40;79.20;;;;;;4858838;29;20644;-92
2021/09/22 13:11:10;;;;;;;3.40;3.10;;;24.30;79.20;;;;;;4864866;29;20609;-92
2021/09/22 13:13:44;;;;;;;3.33;3.10;;;24.50;77.00;;;;;;4864216;29;20710;-93
2021/09/22 13:16:35;;;;;;;3.13;2.90;;;24.40;77.60;;;;;;4859344;29;20690;-93
2021/09/22 13:19:06;;;;;;;3.73;3.27;;;24.70;78.40;;;;;;4860721;29;20702;-91
2021/09/22 13:21:38;;;;;;;2.83;2.63;;;24.70;77.00;;;;;;4867786;29;20633;-91
2021/09/22 13:24:09;;;;;;;2.90;2.70;;;24.40;80.90;;;;;;4872324;29;20671;-90
2021/09/22 13:29:27;;;;;;;3.50;3.20;;;24.70;79.70;;;;;;4863739;29;20627;-91
2021/09/22 13:32:06;;;;;;;3.40;3.20;;;25.40;76.80;;;;;;4867398;29;20673;-91
2021/09/22 13:34:35;;;;;;;3.60;2.70;;;25.70;76.30;;;;;;4872381;29;20626;-91
2021/09/22 13:37:06;;;;;;;3.40;3.10;;;25.50;74.80;;;;;;4864866;29;20666;-91